createdAt,value
2022-08-28T00:01:01.503Z,100898.22
2022-08-28T00:03:32.647Z,100901.56
2022-08-28T00:06:03.869Z,100901.94
2022-08-28T00:08:36.848Z,100912.25
2022-08-28T00:11:07.877Z,100905.94
2022-08-28T00:13:39.570Z,100914.50
2022-08-28T00:16:10.353Z,100922.44
2022-08-28T00:18:40.743Z,100912.13
2022-08-28T00:21:12.475Z,100921.53
2022-08-28T00:23:43.341Z,100935.41
2022-08-28T00:26:34.551Z,100930.06
2022-08-28T00:29:06.399Z,100939.88
2022-08-28T00:31:40.654Z,100941.69
2022-08-28T00:34:11.952Z,100945.69
2022-08-28T00:36:45.133Z,100946.00
2022-08-28T00:39:15.518Z,100951.50
2022-08-28T00:41:46.816Z,100951.41
2022-08-28T00:44:26.639Z,100955.16
2022-08-28T00:46:58.699Z,100963.84
2022-08-28T00:49:33.764Z,100962.78
2022-08-28T00:52:11.858Z,100962.34
2022-08-28T00:54:59.161Z,100949.16
2022-08-28T00:57:52.564Z,100957.75
2022-08-28T01:00:22.580Z,100961.94
2022-08-28T01:02:54.823Z,100963.94
2022-08-28T01:05:26.420Z,100961.81
2022-08-28T01:07:58.147Z,100965.72
2022-08-28T01:10:31.704Z,100966.59
2022-08-28T01:13:03.350Z,100965.28
2022-08-28T01:15:39.902Z,100969.66
2022-08-28T01:18:16.134Z,100972.47
2022-08-28T01:21:21.343Z,100982.38
2022-08-28T01:23:57.163Z,100986.09
2022-08-28T01:26:30.908Z,100979.75
2022-08-28T01:29:02.552Z,100981.25
2022-08-28T01:31:34.684Z,100981.81
2022-08-28T01:34:05.758Z,100982.31
2022-08-28T01:36:36.122Z,100988.47
2022-08-28T01:39:11.514Z,100980.19
2022-08-28T01:41:44.873Z,100986.31
2022-08-28T01:44:20.480Z,100986.53
2022-08-28T01:46:50.724Z,100982.00
2022-08-28T01:49:21.549Z,100983.00
2022-08-28T01:51:52.331Z,100976.69
2022-08-28T01:54:24.952Z,100976.03
2022-08-28T01:56:55.717Z,100982.56
2022-08-28T01:59:26.474Z,100976.53
2022-08-28T02:01:57.526Z,100968.25
2022-08-28T02:04:31.905Z,100968.75
2022-08-28T02:07:02.636Z,100964.38
2022-08-28T02:09:32.801Z,100970.38
2022-08-28T02:12:03.204Z,100967.53
2022-08-28T02:14:33.434Z,100965.56
2022-08-28T02:17:04.798Z,100963.50
2022-08-28T02:19:35.169Z,100964.31
2022-08-28T02:22:10.464Z,100963.19
2022-08-28T02:24:40.631Z,100966.91
2022-08-28T02:27:11.247Z,100967.09
2022-08-28T02:29:41.530Z,100969.22
2022-08-28T02:32:11.771Z,100966.75
2022-08-28T02:34:42.628Z,100961.06
2022-08-28T02:37:31.315Z,100960.94
2022-08-28T02:40:02.713Z,100962.63
2022-08-28T02:42:33.189Z,100965.78
2022-08-28T02:45:03.338Z,100968.97
2022-08-28T02:47:34.091Z,100962.63
2022-08-28T02:50:23.998Z,100963.78
2022-08-28T02:52:54.663Z,100959.69
2022-08-28T02:55:31.359Z,100965.38
2022-08-28T02:58:04.206Z,100954.34
2022-08-28T03:00:35.499Z,100959.56
2022-08-28T03:03:05.800Z,100953.91
2022-08-28T03:05:35.965Z,100960.56
2022-08-28T03:08:06.835Z,100957.78
2022-08-28T03:10:37.330Z,100954.88
2022-08-28T03:13:08.303Z,100959.47
2022-08-28T03:15:40.906Z,100957.13
2022-08-28T03:18:11.718Z,100954.75
2022-08-28T03:20:43.317Z,100947.91
2022-08-28T03:23:28.968Z,100941.25
2022-08-28T03:26:02.430Z,100939.28
2022-08-28T03:28:36.771Z,100935.25
2022-08-28T03:31:08.294Z,100944.53
2022-08-28T03:33:41.920Z,100933.53
2022-08-28T03:36:20.109Z,100928.50
2022-08-28T03:38:51.513Z,100932.56
2022-08-28T03:41:21.989Z,100932.56
2022-08-28T03:43:53.183Z,100929.16
2022-08-28T03:46:25.950Z,100929.97
2022-08-28T03:48:57.916Z,100926.22
2022-08-28T03:51:33.847Z,100926.56
2022-08-28T03:54:06.201Z,100927.88
2022-08-28T03:56:36.385Z,100920.56
2022-08-28T03:59:07.638Z,100922.66
2022-08-28T04:01:41.902Z,100907.41
2022-08-28T04:04:12.455Z,100916.84
2022-08-28T04:06:43.149Z,100915.38
2022-08-28T04:09:13.241Z,100917.97
2022-08-28T04:11:46.701Z,100908.84
2022-08-28T04:14:16.997Z,100906.78
2022-08-28T04:16:47.159Z,100902.38
2022-08-28T04:19:17.328Z,100896.16
2022-08-28T04:21:47.605Z,100897.66
2022-08-28T04:24:17.835Z,100895.38
2022-08-28T04:26:48.166Z,100889.69
2022-08-28T04:29:18.377Z,100890.00
2022-08-28T04:31:48.903Z,100894.41
2022-08-28T04:37:04.376Z,100883.50
2022-08-28T04:39:36.159Z,100874.56
2022-08-28T04:42:06.437Z,100875.19
2022-08-28T04:44:36.825Z,100869.66
2022-08-28T04:47:07.237Z,100868.88
2022-08-28T04:49:37.907Z,100867.22
2022-08-28T04:52:08.185Z,100862.53
2022-08-28T04:54:38.562Z,100859.59
2022-08-28T04:57:08.859Z,100853.09
2022-08-28T04:59:39.823Z,100851.63
2022-08-28T05:02:10.514Z,100853.56
2022-08-28T05:04:40.863Z,100848.53
2022-08-28T05:07:11.174Z,100850.00
2022-08-28T05:09:41.196Z,100844.47
2022-08-28T05:12:11.844Z,100841.38
2022-08-28T05:14:45.613Z,100833.75
2022-08-28T05:17:16.475Z,100828.38
2022-08-28T05:45:36.922Z,100789.34
2022-08-28T05:48:07.765Z,100780.88
2022-08-28T05:50:44.512Z,100784.94
2022-08-28T05:53:20.269Z,100776.59
2022-08-28T05:56:08.625Z,100766.03
2022-08-28T05:58:39.896Z,100757.69
2022-08-28T06:01:12.544Z,100744.84
2022-08-28T06:03:44.685Z,100751.16
2022-08-28T06:06:15.177Z,100740.56
2022-08-28T06:08:58.157Z,100734.56
2022-08-28T06:11:32.710Z,100737.25
2022-08-28T06:14:04.682Z,100727.56
2022-08-28T06:16:35.342Z,100724.19
2022-08-28T06:19:05.828Z,100731.06
2022-08-28T06:21:35.970Z,100727.47
2022-08-28T06:27:07.894Z,100723.47
2022-08-28T06:39:18.217Z,100711.91
2022-08-28T06:41:48.456Z,100713.06
2022-08-28T06:44:22.682Z,100697.84
2022-08-28T06:46:55.878Z,100693.94
2022-08-28T06:49:26.022Z,100693.25
2022-08-28T06:51:56.067Z,100696.03
2022-08-28T06:54:26.146Z,100702.81
2022-08-28T06:56:56.390Z,100702.38
2022-08-28T06:59:26.559Z,100708.75
2022-08-28T07:02:15.676Z,100702.69
2022-08-28T07:04:45.829Z,100694.59
2022-08-28T07:07:33.899Z,100705.50
2022-08-28T07:10:04.053Z,100711.72
2022-08-28T07:12:34.092Z,100714.97
2022-08-28T07:15:06.435Z,100715.53
2022-08-28T07:17:36.640Z,100711.78
2022-08-28T07:20:10.194Z,100701.91
2022-08-28T07:22:43.160Z,100706.47
2022-08-28T07:25:13.787Z,100710.72
2022-08-28T07:27:43.943Z,100708.75
2022-08-28T07:30:15.368Z,100698.84
2022-08-28T07:32:45.776Z,100697.69
2022-08-28T07:35:16.049Z,100691.03
2022-08-28T07:37:47.494Z,100692.16
2022-08-28T07:40:17.844Z,100683.88
2022-08-28T07:43:06.465Z,100677.53
2022-08-28T07:45:37.906Z,100675.56
2022-08-28T07:48:11.685Z,100663.34
2022-08-28T07:50:42.095Z,100654.41
2022-08-28T07:53:13.286Z,100643.34
2022-08-28T07:55:43.312Z,100632.28
2022-08-28T07:58:14.219Z,100637.16
2022-08-28T08:00:44.154Z,100625.91
2022-08-28T08:03:14.586Z,100618.75
2022-08-28T08:05:44.809Z,100615.63
2022-08-28T08:08:15.085Z,100607.66
2022-08-28T08:10:45.367Z,100598.38
2022-08-28T08:13:17.087Z,100604.22
2022-08-28T08:15:47.340Z,100603.38
2022-08-28T08:18:45.915Z,100602.88
2022-08-28T08:21:17.865Z,100579.78
2022-08-28T08:23:49.308Z,100576.41
2022-08-28T08:26:20.594Z,100575.88
2022-08-28T08:28:52.844Z,100568.59
2022-08-28T08:31:29.814Z,100558.31
2022-08-28T08:34:04.203Z,100549.09
2022-08-28T08:36:36.360Z,100547.53
2022-08-28T08:39:09.688Z,100540.88
2022-08-28T08:41:50.183Z,100547.00
2022-08-28T08:44:43.679Z,100539.06
2022-08-28T08:47:24.297Z,100533.16
2022-08-28T08:49:59.423Z,100521.50
2022-08-28T08:52:49.530Z,100514.28
2022-08-28T08:55:34.195Z,100505.16
2022-08-28T08:58:11.971Z,100494.25
2022-08-28T09:01:06.882Z,100504.00
2022-08-28T09:03:57.979Z,100493.75
2022-08-28T09:06:43.925Z,100498.34
2022-08-28T09:09:30.199Z,100502.38
2022-08-28T09:12:12.641Z,100504.56
2022-08-28T09:14:48.376Z,100500.44
2022-08-28T09:17:22.247Z,100507.47
2022-08-28T09:19:52.450Z,100508.28
2022-08-28T09:22:24.621Z,100513.94
2022-08-28T09:24:54.968Z,100514.41
2022-08-28T09:27:33.239Z,100509.75
2022-08-28T09:30:11.002Z,100520.59
2022-08-28T09:32:46.495Z,100507.00
2022-08-28T09:35:30.219Z,100508.63
2022-08-28T09:38:21.588Z,100515.06
2022-08-28T09:41:10.166Z,100504.47
2022-08-28T09:43:42.001Z,100496.66
2022-08-28T09:46:24.281Z,100492.63
2022-08-28T09:48:54.705Z,100489.81
2022-08-28T09:51:25.181Z,100487.88
2022-08-28T09:53:58.235Z,100489.03
2022-08-28T09:56:34.201Z,100479.34
2022-08-28T09:59:13.253Z,100471.03
2022-08-28T10:02:12.521Z,100468.84
2022-08-28T10:05:10.906Z,100459.97
2022-08-28T10:07:44.471Z,100462.97
2022-08-28T10:10:18.618Z,100466.88
2022-08-28T10:13:13.368Z,100476.13
2022-08-28T10:16:12.515Z,100481.56
2022-08-28T10:18:59.042Z,100473.56
2022-08-28T10:21:37.980Z,100471.03
2022-08-28T10:24:36.033Z,100474.13
2022-08-28T10:27:35.270Z,100478.19
2022-08-28T10:30:15.821Z,100474.03
2022-08-28T10:33:03.665Z,100468.97
2022-08-28T10:35:54.693Z,100477.28
2022-08-28T10:38:53.114Z,100480.25
2022-08-28T10:41:50.909Z,100484.63
2022-08-28T10:44:28.337Z,100486.81
2022-08-28T10:47:00.772Z,100495.94
2022-08-28T10:49:49.657Z,100499.50
2022-08-28T10:52:52.063Z,100498.69
2022-08-28T10:55:30.103Z,100492.50
2022-08-28T10:58:04.807Z,100493.38
2022-08-28T11:00:51.727Z,100490.59
2022-08-28T11:03:34.289Z,100503.28
2022-08-28T11:06:31.535Z,100504.22
2022-08-28T11:09:26.658Z,100502.59
2022-08-28T11:12:03.210Z,100494.31
2022-08-28T11:14:48.446Z,100491.06
2022-08-28T11:17:25.108Z,100500.16
2022-08-28T11:20:13.560Z,100507.19
2022-08-28T11:23:02.723Z,100522.16
2022-08-28T11:25:37.196Z,100529.81
2022-08-28T11:28:19.726Z,100528.31
2022-08-28T11:31:19.255Z,100540.88
2022-08-28T11:34:02.368Z,100544.31
2022-08-28T11:36:32.567Z,100538.78
2022-08-28T11:39:20.328Z,100550.97
2022-08-28T11:42:15.926Z,100554.56
2022-08-28T11:44:48.181Z,100556.72
2022-08-28T11:47:46.509Z,100558.19
2022-08-28T11:50:27.147Z,100563.72
2022-08-28T11:53:15.583Z,100572.38
2022-08-28T11:59:13.327Z,100580.13
2022-08-28T12:01:43.139Z,100581.75
2022-08-28T12:04:15.420Z,100594.28
2022-08-28T12:06:51.715Z,100598.03
2022-08-28T12:09:45.280Z,100589.94
2022-08-28T12:12:18.162Z,100586.00
2022-08-28T12:15:02.409Z,100601.59
2022-08-28T12:17:45.776Z,100610.38
2022-08-28T12:20:26.115Z,100604.22
2022-08-28T12:22:59.136Z,100612.19
2022-08-28T12:25:48.816Z,100609.91
2022-08-28T12:28:24.699Z,100611.66
2022-08-28T12:31:16.392Z,100611.19
2022-08-28T12:34:03.444Z,100612.81
2022-08-28T12:36:34.421Z,100617.88
2022-08-28T12:39:06.164Z,100619.84
2022-08-28T12:41:36.500Z,100618.34
2022-08-28T12:44:08.635Z,100617.06
2022-08-28T12:46:45.232Z,100621.47
2022-08-28T12:49:36.359Z,100618.53
2022-08-28T12:52:16.643Z,100618.22
2022-08-28T12:54:51.986Z,100614.13
2022-08-28T12:57:25.529Z,100620.00
2022-08-28T12:59:58.519Z,100626.03
2022-08-28T13:02:38.225Z,100616.44
2022-08-28T13:05:11.885Z,100625.53
2022-08-28T13:07:52.093Z,100628.31
2022-08-28T13:10:27.132Z,100633.66
2022-08-28T13:13:20.752Z,100633.97
2022-08-28T13:15:53.128Z,100647.06
2022-08-28T13:18:59.280Z,100646.72
2022-08-28T13:21:34.897Z,100660.06
2022-08-28T13:24:29.836Z,100667.09
2022-08-28T13:27:04.738Z,100677.19
2022-08-28T13:29:35.573Z,100680.44
2022-08-28T13:32:09.912Z,100683.34
2022-08-28T13:34:47.913Z,100685.31
2022-08-28T13:37:47.640Z,100679.97
2022-08-28T13:40:53.265Z,100688.41
2022-08-28T13:43:13.100Z,100692.84
2022-08-28T13:45:46.715Z,100692.16
2022-08-28T13:48:30.625Z,100689.59
2022-08-28T13:51:12.049Z,100691.53
2022-08-28T13:53:49.926Z,100694.50
2022-08-28T13:56:21.903Z,100696.28
2022-08-28T13:58:57.377Z,100704.09
2022-08-28T14:01:51.592Z,100694.16
2022-08-28T14:04:40.158Z,100702.13
2022-08-28T14:07:10.761Z,100693.81
2022-08-28T14:09:42.030Z,100695.66
2022-08-28T14:12:13.579Z,100710.75
2022-08-28T14:14:44.483Z,100721.00
2022-08-28T14:17:15.233Z,100718.56
2022-08-28T14:19:45.273Z,100729.00
2022-08-28T14:22:15.783Z,100743.47
2022-08-28T14:24:46.220Z,100739.06
2022-08-28T14:27:16.477Z,100735.63
2022-08-28T14:32:32.333Z,100734.53
2022-08-28T14:35:02.619Z,100739.41
2022-08-28T14:37:32.754Z,100741.50
2022-08-28T14:40:02.803Z,100751.25
2022-08-28T14:42:32.788Z,100760.88
2022-08-28T14:45:02.926Z,100761.53
2022-08-28T14:47:33.040Z,100772.25
2022-08-28T14:50:03.293Z,100779.25
2022-08-28T14:52:33.755Z,100783.78
2022-08-28T14:55:03.912Z,100799.25
2022-08-28T14:57:34.102Z,100802.00
2022-08-28T15:00:05.661Z,100793.06
2022-08-28T15:02:35.859Z,100799.59
2022-08-28T15:05:06.297Z,100805.13
2022-08-28T15:07:36.544Z,100795.50
2022-08-28T15:10:07.500Z,100796.47
2022-08-28T15:12:37.768Z,100805.13
2022-08-28T15:15:08.911Z,100800.72
2022-08-28T15:17:38.944Z,100804.47
2022-08-28T15:20:09.322Z,100801.03
2022-08-28T15:22:39.699Z,100805.78
2022-08-28T15:25:10.532Z,100810.47
2022-08-28T15:27:41.420Z,100800.91
2022-08-28T15:30:12.332Z,100798.94
2022-08-28T15:32:44.366Z,100800.06
2022-08-28T15:35:14.958Z,100794.84
2022-08-28T15:37:45.162Z,100795.66
2022-08-28T15:40:33.886Z,100796.00
2022-08-28T15:48:40.524Z,100806.56
2022-08-28T15:51:10.927Z,100801.38
2022-08-28T15:53:42.034Z,100793.06
2022-08-28T15:56:31.115Z,100795.34
2022-08-28T15:59:01.085Z,100788.69
2022-08-28T16:01:31.574Z,100794.53
2022-08-28T16:04:01.727Z,100800.06
2022-08-28T16:06:31.906Z,100798.75
2022-08-28T16:09:02.090Z,100790.47
2022-08-28T16:11:33.882Z,100797.13
2022-08-28T16:14:07.357Z,100798.28
2022-08-28T16:16:37.727Z,100802.66
2022-08-28T16:19:10.384Z,100805.44
2022-08-28T16:21:40.835Z,100806.56
2022-08-28T16:24:11.165Z,100804.94
2022-08-28T16:26:42.568Z,100804.94
2022-08-28T16:29:12.812Z,100794.22
2022-08-28T16:31:43.519Z,100795.84
2022-08-28T16:34:13.675Z,100791.47
2022-08-28T16:36:43.823Z,100791.78
2022-08-28T16:39:14.436Z,100798.13
2022-08-28T16:41:48.382Z,100801.22
2022-08-28T16:44:30.322Z,100805.13
2022-08-28T16:47:00.741Z,100808.69
2022-08-28T16:49:34.134Z,100803.50
2022-08-28T16:52:04.416Z,100809.03
2022-08-28T16:54:37.788Z,100803.50
2022-08-28T16:57:18.158Z,100790.00
2022-08-28T16:59:48.566Z,100790.81
2022-08-28T17:02:27.121Z,100794.72
2022-08-28T17:05:02.557Z,100794.22
2022-08-28T17:07:33.088Z,100786.75
2022-08-28T17:10:03.927Z,100787.06
2022-08-28T17:12:34.513Z,100789.50
2022-08-28T17:15:04.897Z,100785.13
2022-08-28T17:17:35.298Z,100785.13
2022-08-28T17:20:07.573Z,100780.41
2022-08-28T17:22:37.909Z,100771.31
2022-08-28T17:25:15.742Z,100766.94
2022-08-28T17:27:46.117Z,100757.00
2022-08-28T17:30:17.762Z,100757.81
2022-08-28T17:32:48.736Z,100758.94
2022-08-28T17:35:24.281Z,100757.31
2022-08-28T17:37:56.270Z,100756.50
2022-08-28T17:40:26.577Z,100750.50
2022-08-28T17:42:56.836Z,100747.09
2022-08-28T17:45:26.866Z,100738.16
2022-08-28T17:48:00.263Z,100737.03
2022-08-28T17:50:30.475Z,100735.06
2022-08-28T17:53:18.604Z,100733.44
2022-08-28T17:55:49.502Z,100735.84
2022-08-28T17:58:19.729Z,100732.16
2022-08-28T18:00:50.504Z,100723.84
2022-08-28T18:03:21.603Z,100719.78
2022-08-28T18:05:53.836Z,100724.34
2022-08-28T18:08:24.040Z,100715.56
2022-08-28T18:10:54.308Z,100714.75
